sensor_id;sensor_type;location;lat;lon;timestamp;P1;durP1;ratioP1;P2;durP2;ratioP2
21550;SDS011;10936;49.836;7.078;2023-04-25T05:02:14;32.40;;;19.27;;
21550;SDS011;10936;49.836;7.078;2023-04-25T05:04:41;31.17;;;19.40;;
21550;SDS011;10936;49.836;7.078;2023-04-25T05:07:06;28.83;;;17.63;;
21550;SDS011;10936;49.836;7.078;2023-04-25T05:09:32;32.63;;;18.43;;
21550;SDS011;10936;49.836;7.078;2023-04-25T05:11:57;25.87;;;16.53;;
21550;SDS011;10936;49.836;7.078;2023-04-25T05:14:23;23.37;;;14.57;;
21550;SDS011;10936;49.836;7.078;2023-04-25T05:16:49;17.87;;;13.10;;
21550;SDS011;10936;49.836;7.078;2023-04-25T05:19:14;24.13;;;12.10;;
21550;SDS011;10936;49.836;7.078;2023-04-25T05:21:40;21.67;;;11.63;;
21550;SDS011;10936;49.836;7.078;2023-04-25T05:24:05;21.00;;;12.23;;
21550;SDS011;10936;49.836;7.078;2023-04-25T05:26:31;19.43;;;10.87;;
21550;SDS011;10936;49.836;7.078;2023-04-25T05:28:57;17.60;;;9.87;;
21550;SDS011;10936;49.836;7.078;2023-04-25T05:31:23;16.90;;;11.23;;
21550;SDS011;10936;49.836;7.078;2023-04-25T05:33:48;18.47;;;10.90;;
21550;SDS011;10936;49.836;7.078;2023-04-25T05:36:14;19.07;;;11.40;;
21550;SDS011;10936;49.836;7.078;2023-04-25T05:38:39;18.97;;;10.80;;
21550;SDS011;10936;49.836;7.078;2023-04-25T05:41:05;19.03;;;11.80;;
21550;SDS011;10936;49.836;7.078;2023-04-25T05:43:30;19.10;;;11.00;;
21550;SDS011;10936;49.836;7.078;2023-04-25T05:45:56;18.70;;;11.53;;
21550;SDS011;10936;49.836;7.078;2023-04-25T05:48:21;19.30;;;11.30;;
21550;SDS011;10936;49.836;7.078;2023-04-25T05:50:47;20.20;;;11.70;;
21550;SDS011;10936;49.836;7.078;2023-04-25T05:53:13;20.67;;;11.57;;
21550;SDS011;10936;49.836;7.078;2023-04-25T05:55:38;22.87;;;13.13;;
21550;SDS011;10936;49.836;7.078;2023-04-25T05:58:04;23.60;;;13.33;;
21550;SDS011;10936;49.836;7.078;2023-04-25T06:00:31;26.43;;;14.00;;
21550;SDS011;10936;49.836;7.078;2023-04-25T06:02:57;23.00;;;13.60;;
21550;SDS011;10936;49.836;7.078;2023-04-25T06:05:22;22.63;;;13.67;;
21550;SDS011;10936;49.836;7.078;2023-04-25T06:07:48;23.63;;;14.47;;
21550;SDS011;10936;49.836;7.078;2023-04-25T06:10:13;23.20;;;13.57;;
21550;SDS011;10936;49.836;7.078;2023-04-25T06:12:39;20.83;;;13.30;;
21550;SDS011;10936;49.836;7.078;2023-04-25T06:15:05;22.17;;;13.97;;
21550;SDS011;10936;49.836;7.078;2023-04-25T06:17:32;23.27;;;13.80;;
21550;SDS011;10936;49.836;7.078;2023-04-25T06:19:57;19.57;;;13.07;;
21550;SDS011;10936;49.836;7.078;2023-04-25T06:22:23;23.87;;;13.53;;
21550;SDS011;10936;49.836;7.078;2023-04-25T06:24:49;18.43;;;12.60;;
21550;SDS011;10936;49.836;7.078;2023-04-25T06:27:14;26.27;;;13.23;;
21550;SDS011;10936;49.836;7.078;2023-04-25T06:29:40;19.13;;;12.77;;
21550;SDS011;10936;49.836;7.078;2023-04-25T06:32:05;22.30;;;12.67;;
21550;SDS011;10936;49.836;7.078;2023-04-25T06:34:31;25.97;;;11.77;;
21550;SDS011;10936;49.836;7.078;2023-04-25T06:36:56;22.10;;;12.13;;
21550;SDS011;10936;49.836;7.078;2023-04-25T06:39:22;22.67;;;12.07;;
21550;SDS011;10936;49.836;7.078;2023-04-25T06:41:49;30.00;;;11.57;;
21550;SDS011;10936;49.836;7.078;2023-04-25T06:44:15;24.97;;;11.83;;
21550;SDS011;10936;49.836;7.078;2023-04-25T06:46:40;29.27;;;10.50;;
21550;SDS011;10936;49.836;7.078;2023-04-25T06:49:06;25.90;;;12.90;;
21550;SDS011;10936;49.836;7.078;2023-04-25T06:51:32;21.93;;;11.60;;
21550;SDS011;10936;49.836;7.078;2023-04-25T06:53:57;20.97;;;11.47;;
21550;SDS011;10936;49.836;7.078;2023-04-25T06:56:23;20.90;;;11.57;;
21550;SDS011;10936;49.836;7.078;2023-04-25T06:58:49;21.00;;;11.07;;
21550;SDS011;10936;49.836;7.078;2023-04-25T07:01:14;24.80;;;11.80;;
21550;SDS011;10936;49.836;7.078;2023-04-25T07:03:40;21.43;;;11.10;;
21550;SDS011;10936;49.836;7.078;2023-04-25T07:06:06;24.23;;;11.20;;
21550;SDS011;10936;49.836;7.078;2023-04-25T07:08:32;26.50;;;11.77;;
21550;SDS011;10936;49.836;7.078;2023-04-25T07:10:57;25.63;;;11.50;;
21550;SDS011;10936;49.836;7.078;2023-04-25T07:13:23;21.27;;;10.80;;
21550;SDS011;10936;49.836;7.078;2023-04-25T07:15:49;18.53;;;10.13;;
21550;SDS011;10936;49.836;7.078;2023-04-25T07:18:14;21.33;;;10.23;;
21550;SDS011;10936;49.836;7.078;2023-04-25T07:20:40;26.83;;;10.37;;
21550;SDS011;10936;49.836;7.078;2023-04-25T07:23:05;17.60;;;8.87;;
21550;SDS011;10936;49.836;7.078;2023-04-25T07:25:31;29.87;;;9.23;;
21550;SDS011;10936;49.836;7.078;2023-04-25T07:27:57;20.13;;;9.33;;
21550;SDS011;10936;49.836;7.078;2023-04-25T07:30:22;17.23;;;8.87;;
21550;SDS011;10936;49.836;7.078;2023-04-25T07:32:48;22.90;;;9.20;;
21550;SDS011;10936;49.836;7.078;2023-04-25T07:35:15;18.13;;;7.80;;
21550;SDS011;10936;49.836;7.078;2023-04-25T07:37:41;18.83;;;9.27;;
21550;SDS011;10936;49.836;7.078;2023-04-25T07:40:07;17.87;;;8.53;;
21550;SDS011;10936;49.836;7.078;2023-04-25T07:42:34;13.73;;;7.20;;
21550;SDS011;10936;49.836;7.078;2023-04-25T07:45:00;15.07;;;7.97;;
21550;SDS011;10936;49.836;7.078;2023-04-25T07:47:26;16.17;;;7.23;;
21550;SDS011;10936;49.836;7.078;2023-04-25T07:49:51;15.83;;;7.53;;
21550;SDS011;10936;49.836;7.078;2023-04-25T07:52:17;16.67;;;8.43;;
21550;SDS011;10936;49.836;7.078;2023-04-25T07:54:43;15.07;;;7.53;;
21550;SDS011;10936;49.836;7.078;2023-04-25T07:57:08;16.10;;;7.40;;
21550;SDS011;10936;49.836;7.078;2023-04-25T07:59:34;17.17;;;7.20;;
21550;SDS011;10936;49.836;7.078;2023-04-25T08:02:00;15.33;;;7.17;;
21550;SDS011;10936;49.836;7.078;2023-04-25T08:04:26;13.23;;;6.43;;
21550;SDS011;10936;49.836;7.078;2023-04-25T08:06:51;12.17;;;5.83;;
21550;SDS011;10936;49.836;7.078;2023-04-25T08:09:20;15.00;;;5.97;;
21550;SDS011;10936;49.836;7.078;2023-04-25T08:11:46;12.57;;;5.87;;
21550;SDS011;10936;49.836;7.078;2023-04-25T08:14:12;11.73;;;6.40;;
21550;SDS011;10936;49.836;7.078;2023-04-25T08:16:38;16.70;;;6.20;;
21550;SDS011;10936;49.836;7.078;2023-04-25T08:19:03;16.27;;;7.00;;
21550;SDS011;10936;49.836;7.078;2023-04-25T08:21:30;12.83;;;6.00;;
21550;SDS011;10936;49.836;7.078;2023-04-25T08:23:56;16.47;;;6.33;;
21550;SDS011;10936;49.836;7.078;2023-04-25T08:26:23;18.63;;;8.23;;
21550;SDS011;10936;49.836;7.078;2023-04-25T08:28:51;23.57;;;11.47;;
21550;SDS011;10936;49.836;7.078;2023-04-25T08:31:17;14.33;;;5.80;;
21550;SDS011;10936;49.836;7.078;2023-04-25T08:33:43;12.57;;;6.17;;
21550;SDS011;10936;49.836;7.078;2023-04-25T08:36:10;10.27;;;4.80;;
21550;SDS011;10936;49.836;7.078;2023-04-25T08:38:35;8.37;;;4.93;;
21550;SDS011;10936;49.836;7.078;2023-04-25T08:41:01;12.10;;;4.53;;
21550;SDS011;10936;49.836;7.078;2023-04-25T08:43:27;10.53;;;4.37;;
21550;SDS011;10936;49.836;7.078;2023-04-25T08:45:59;9.33;;;4.10;;
21550;SDS011;10936;49.836;7.078;2023-04-25T08:48:26;8.73;;;3.80;;
21550;SDS011;10936;49.836;7.078;2023-04-25T08:50:53;7.63;;;4.37;;
21550;SDS011;10936;49.836;7.078;2023-04-25T08:53:21;8.13;;;4.10;;
21550;SDS011;10936;49.836;7.078;2023-04-25T08:55:50;10.47;;;3.80;;
21550;SDS011;10936;49.836;7.078;2023-04-25T08:58:19;8.27;;;4.10;;
21550;SDS011;10936;49.836;7.078;2023-04-25T09:00:48;7.73;;;4.03;;
21550;SDS011;10936;49.836;7.078;2023-04-25T09:03:15;9.63;;;3.93;;
21550;SDS011;10936;49.836;7.078;2023-04-25T09:05:42;8.27;;;3.57;;
21550;SDS011;10936;49.836;7.078;2023-04-25T09:08:07;5.40;;;3.17;;
21550;SDS011;10936;49.836;7.078;2023-04-25T09:10:33;8.73;;;3.73;;
21550;SDS011;10936;49.836;7.078;2023-04-25T09:18:31;10.37;;;4.03;;
21550;SDS011;10936;49.836;7.078;2023-04-25T09:21:04;7.60;;;4.20;;
21550;SDS011;10936;49.836;7.078;2023-04-25T09:23:31;10.93;;;4.30;;
21550;SDS011;10936;49.836;7.078;2023-04-25T09:26:08;8.43;;;4.67;;
21550;SDS011;10936;49.836;7.078;2023-04-25T09:28:34;9.20;;;3.63;;
21550;SDS011;10936;49.836;7.078;2023-04-25T09:31:01;9.93;;;3.90;;
21550;SDS011;10936;49.836;7.078;2023-04-25T09:33:30;10.00;;;4.10;;
21550;SDS011;10936;49.836;7.078;2023-04-25T09:36:05;13.63;;;5.40;;
21550;SDS011;10936;49.836;7.078;2023-04-25T09:38:32;8.43;;;3.47;;
21550;SDS011;10936;49.836;7.078;2023-04-25T09:41:09;7.47;;;4.83;;
21550;SDS011;10936;49.836;7.078;2023-04-25T09:43:35;9.87;;;5.50;;
21550;SDS011;10936;49.836;7.078;2023-04-25T09:46:02;8.47;;;3.93;;
21550;SDS011;10936;49.836;7.078;2023-04-25T09:48:32;7.90;;;4.40;;
21550;SDS011;10936;49.836;7.078;2023-04-25T09:51:10;17.03;;;3.97;;
21550;SDS011;10936;49.836;7.078;2023-04-25T09:53:41;7.27;;;3.20;;
21550;SDS011;10936;49.836;7.078;2023-04-25T09:56:09;9.37;;;3.30;;
21550;SDS011;10936;49.836;7.078;2023-04-25T09:58:37;5.27;;;3.20;;
21550;SDS011;10936;49.836;7.078;2023-04-25T10:01:05;8.83;;;3.27;;
21550;SDS011;10936;49.836;7.078;2023-04-25T10:03:33;8.63;;;3.67;;
21550;SDS011;10936;49.836;7.078;2023-04-25T10:06:01;6.43;;;2.90;;
21550;SDS011;10936;49.836;7.078;2023-04-25T10:08:33;10.73;;;4.93;;
21550;SDS011;10936;49.836;7.078;2023-04-25T10:11:02;12.47;;;5.10;;
21550;SDS011;10936;49.836;7.078;2023-04-25T10:13:32;7.63;;;3.27;;
21550;SDS011;10936;49.836;7.078;2023-04-25T10:15:59;8.40;;;3.13;;
21550;SDS011;10936;49.836;7.078;2023-04-25T10:18:28;9.73;;;4.33;;
21550;SDS011;10936;49.836;7.078;2023-04-25T10:20:55;8.60;;;4.37;;
21550;SDS011;10936;49.836;7.078;2023-04-25T10:23:23;14.33;;;4.40;;
21550;SDS011;10936;49.836;7.078;2023-04-25T10:25:49;11.07;;;4.17;;
21550;SDS011;10936;49.836;7.078;2023-04-25T10:28:16;8.33;;;3.63;;
21550;SDS011;10936;49.836;7.078;2023-04-25T10:31:01;9.80;;;3.23;;
21550;SDS011;10936;49.836;7.078;2023-04-25T10:33:36;12.60;;;3.43;;
21550;SDS011;10936;49.836;7.078;2023-04-25T10:36:09;12.43;;;3.70;;
21550;SDS011;10936;49.836;7.078;2023-04-25T10:38:40;11.83;;;3.63;;
21550;SDS011;10936;49.836;7.078;2023-04-25T10:41:09;12.23;;;3.97;;
21550;SDS011;10936;49.836;7.078;2023-04-25T10:43:45;8.30;;;3.33;;
21550;SDS011;10936;49.836;7.078;2023-04-25T10:46:15;9.30;;;3.70;;
21550;SDS011;10936;49.836;7.078;2023-04-25T10:48:50;8.03;;;3.60;;
21550;SDS011;10936;49.836;7.078;2023-04-25T10:51:21;8.23;;;3.70;;
21550;SDS011;10936;49.836;7.078;2023-04-25T10:56:29;10.93;;;3.70;;
21550;SDS011;10936;49.836;7.078;2023-04-25T11:01:37;7.83;;;3.87;;
21550;SDS011;10936;49.836;7.078;2023-04-25T11:04:05;9.67;;;4.07;;
21550;SDS011;10936;49.836;7.078;2023-04-25T11:06:41;14.57;;;4.60;;
21550;SDS011;10936;49.836;7.078;2023-04-25T11:09:11;10.83;;;3.20;;
21550;SDS011;10936;49.836;7.078;2023-04-25T11:11:40;6.57;;;3.43;;
21550;SDS011;10936;49.836;7.078;2023-04-25T11:14:06;8.77;;;3.50;;
21550;SDS011;10936;49.836;7.078;2023-04-25T11:16:31;9.40;;;3.23;;
21550;SDS011;10936;49.836;7.078;2023-04-25T11:18:57;7.97;;;4.10;;
21550;SDS011;10936;49.836;7.078;2023-04-25T11:21:25;11.97;;;3.10;;
21550;SDS011;10936;49.836;7.078;2023-04-25T11:23:56;6.43;;;3.33;;
21550;SDS011;10936;49.836;7.078;2023-04-25T11:26:22;11.27;;;2.60;;
21550;SDS011;10936;49.836;7.078;2023-04-25T11:28:49;5.68;;;2.90;;
21550;SDS011;10936;49.836;7.078;2023-04-25T11:31:14;7.40;;;2.47;;
21550;SDS011;10936;49.836;7.078;2023-04-25T11:33:40;7.30;;;2.70;;
21550;SDS011;10936;49.836;7.078;2023-04-25T11:36:07;8.67;;;3.13;;
21550;SDS011;10936;49.836;7.078;2023-04-25T11:38:33;9.37;;;2.97;;
21550;SDS011;10936;49.836;7.078;2023-04-25T11:40:59;11.50;;;3.87;;
21550;SDS011;10936;49.836;7.078;2023-04-25T11:43:25;8.80;;;3.00;;
21550;SDS011;10936;49.836;7.078;2023-04-25T11:45:52;13.00;;;3.40;;
21550;SDS011;10936;49.836;7.078;2023-04-25T11:48:18;9.63;;;3.83;;
21550;SDS011;10936;49.836;7.078;2023-04-25T11:50:44;11.80;;;3.67;;
21550;SDS011;10936;49.836;7.078;2023-04-25T11:53:10;14.20;;;4.63;;
21550;SDS011;10936;49.836;7.078;2023-04-25T11:55:35;13.13;;;3.97;;
21550;SDS011;10936;49.836;7.078;2023-04-25T11:58:02;16.27;;;5.83;;
21550;SDS011;10936;49.836;7.078;2023-04-25T12:00:29;9.43;;;3.67;;
21550;SDS011;10936;49.836;7.078;2023-04-25T12:02:56;11.83;;;3.57;;
21550;SDS011;10936;49.836;7.078;2023-04-25T12:05:26;11.83;;;3.97;;
21550;SDS011;10936;49.836;7.078;2023-04-25T12:07:53;13.07;;;3.77;;
21550;SDS011;10936;49.836;7.078;2023-04-25T12:10:19;13.27;;;4.03;;
21550;SDS011;10936;49.836;7.078;2023-04-25T12:12:47;8.20;;;3.30;;
21550;SDS011;10936;49.836;7.078;2023-04-25T12:15:14;12.73;;;3.73;;
21550;SDS011;10936;49.836;7.078;2023-04-25T12:17:41;7.27;;;3.13;;
21550;SDS011;10936;49.836;7.078;2023-04-25T12:20:12;9.40;;;3.57;;
21550;SDS011;10936;49.836;7.078;2023-04-25T12:22:43;7.57;;;3.17;;
21550;SDS011;10936;49.836;7.078;2023-04-25T12:25:12;9.27;;;3.20;;
21550;SDS011;10936;49.836;7.078;2023-04-25T12:27:38;9.63;;;3.50;;
21550;SDS011;10936;49.836;7.078;2023-04-25T12:30:09;7.00;;;3.10;;
21550;SDS011;10936;49.836;7.078;2023-04-25T12:32:35;8.83;;;3.20;;
21550;SDS011;10936;49.836;7.078;2023-04-25T12:35:03;9.60;;;3.03;;
21550;SDS011;10936;49.836;7.078;2023-04-25T12:37:29;9.50;;;3.60;;
21550;SDS011;10936;49.836;7.078;2023-04-25T12:39:55;7.27;;;2.60;;
21550;SDS011;10936;49.836;7.078;2023-04-25T12:42:21;8.47;;;3.33;;
21550;SDS011;10936;49.836;7.078;2023-04-25T12:44:46;10.37;;;3.47;;
21550;SDS011;10936;49.836;7.078;2023-04-25T12:47:12;9.37;;;3.17;;
21550;SDS011;10936;49.836;7.078;2023-04-25T12:49:38;9.33;;;2.80;;
21550;SDS011;10936;49.836;7.078;2023-04-25T12:52:04;5.70;;;2.80;;
21550;SDS011;10936;49.836;7.078;2023-04-25T12:54:29;4.27;;;2.60;;
21550;SDS011;10936;49.836;7.078;2023-04-25T12:56:56;5.77;;;2.60;;
21550;SDS011;10936;49.836;7.078;2023-04-25T12:59:22;7.53;;;2.40;;
21550;SDS011;10936;49.836;7.078;2023-04-25T13:01:48;9.50;;;2.97;;
21550;SDS011;10936;49.836;7.078;2023-04-25T13:04:13;6.83;;;2.70;;
21550;SDS011;10936;49.836;7.078;2023-04-25T13:06:39;6.77;;;2.90;;
21550;SDS011;10936;49.836;7.078;2023-04-25T13:09:04;11.07;;;2.90;;
21550;SDS011;10936;49.836;7.078;2023-04-25T13:11:31;9.70;;;3.23;;
21550;SDS011;10936;49.836;7.078;2023-04-25T13:13:57;13.70;;;4.63;;
21550;SDS011;10936;49.836;7.078;2023-04-25T13:16:22;6.83;;;3.00;;
21550;SDS011;10936;49.836;7.078;2023-04-25T13:18:48;6.70;;;2.90;;
21550;SDS011;10936;49.836;7.078;2023-04-25T13:21:13;10.83;;;4.30;;
21550;SDS011;10936;49.836;7.078;2023-04-25T13:23:39;5.67;;;2.90;;
21550;SDS011;10936;49.836;7.078;2023-04-25T13:26:06;9.80;;;2.93;;
21550;SDS011;10936;49.836;7.078;2023-04-25T13:28:32;9.23;;;3.50;;
21550;SDS011;10936;49.836;7.078;2023-04-25T13:30:57;13.43;;;3.70;;
21550;SDS011;10936;49.836;7.078;2023-04-25T13:33:24;11.90;;;3.50;;
21550;SDS011;10936;49.836;7.078;2023-04-25T13:35:50;8.53;;;3.07;;
21550;SDS011;10936;49.836;7.078;2023-04-25T13:38:23;9.37;;;3.20;;
21550;SDS011;10936;49.836;7.078;2023-04-25T13:40:50;11.17;;;2.80;;
21550;SDS011;10936;49.836;7.078;2023-04-25T13:43:20;6.57;;;2.70;;
21550;SDS011;10936;49.836;7.078;2023-04-25T13:45:49;8.53;;;3.10;;
21550;SDS011;10936;49.836;7.078;2023-04-25T13:48:15;7.37;;;2.93;;
21550;SDS011;10936;49.836;7.078;2023-04-25T13:50:41;9.00;;;2.93;;
21550;SDS011;10936;49.836;7.078;2023-04-25T13:53:06;7.63;;;2.77;;
21550;SDS011;10936;49.836;7.078;2023-04-25T13:55:33;8.77;;;3.13;;
21550;SDS011;10936;49.836;7.078;2023-04-25T13:58:00;9.77;;;2.80;;
21550;SDS011;10936;49.836;7.078;2023-04-25T14:00:32;7.77;;;2.87;;
21550;SDS011;10936;49.836;7.078;2023-04-25T14:02:57;5.50;;;2.50;;
21550;SDS011;10936;49.836;7.078;2023-04-25T14:05:23;7.93;;;2.67;;
21550;SDS011;10936;49.836;7.078;2023-04-25T14:07:49;13.60;;;3.00;;
21550;SDS011;10936;49.836;7.078;2023-04-25T14:10:15;9.83;;;3.60;;
21550;SDS011;10936;49.836;7.078;2023-04-25T14:12:40;7.17;;;2.93;;
21550;SDS011;10936;49.836;7.078;2023-04-25T14:15:06;11.87;;;2.93;;
21550;SDS011;10936;49.836;7.078;2023-04-25T14:17:32;7.13;;;3.37;;
21550;SDS011;10936;49.836;7.078;2023-04-25T14:19:57;14.73;;;3.43;;
21550;SDS011;10936;49.836;7.078;2023-04-25T14:22:23;6.33;;;2.80;;
21550;SDS011;10936;49.836;7.078;2023-04-25T14:24:48;7.70;;;3.10;;
21550;SDS011;10936;49.836;7.078;2023-04-25T14:27:14;8.30;;;2.40;;
21550;SDS011;10936;49.836;7.078;2023-04-25T14:29:39;5.90;;;2.70;;
21550;SDS011;10936;49.836;7.078;2023-04-25T14:32:05;6.97;;;2.67;;
21550;SDS011;10936;49.836;7.078;2023-04-25T14:34:31;6.27;;;2.37;;
21550;SDS011;10936;49.836;7.078;2023-04-25T14:36:57;9.77;;;2.90;;
21550;SDS011;10936;49.836;7.078;2023-04-25T14:39:22;10.50;;;2.40;;
21550;SDS011;10936;49.836;7.078;2023-04-25T14:41:48;7.87;;;2.50;;
21550;SDS011;10936;49.836;7.078;2023-04-25T14:44:13;5.97;;;2.30;;
21550;SDS011;10936;49.836;7.078;2023-04-25T14:46:40;7.60;;;2.40;;
21550;SDS011;10936;49.836;7.078;2023-04-25T14:49:05;7.83;;;2.13;;
21550;SDS011;10936;49.836;7.078;2023-04-25T14:51:31;7.67;;;2.43;;
21550;SDS011;10936;49.836;7.078;2023-04-25T14:53:58;8.33;;;3.03;;
21550;SDS011;10936;49.836;7.078;2023-04-25T14:56:23;8.10;;;2.43;;
21550;SDS011;10936;49.836;7.078;2023-04-25T14:58:49;6.87;;;2.60;;
21550;SDS011;10936;49.836;7.078;2023-04-25T15:01:14;9.60;;;2.93;;
21550;SDS011;10936;49.836;7.078;2023-04-25T15:03:40;6.83;;;2.50;;
21550;SDS011;10936;49.836;7.078;2023-04-25T15:06:06;7.13;;;2.30;;
21550;SDS011;10936;49.836;7.078;2023-04-25T15:08:32;8.40;;;2.17;;
21550;SDS011;10936;49.836;7.078;2023-04-25T15:10:57;11.70;;;2.93;;
21550;SDS011;10936;49.836;7.078;2023-04-25T15:13:23;4.00;;;2.43;;
21550;SDS011;10936;49.836;7.078;2023-04-25T15:15:49;8.77;;;3.80;;
21550;SDS011;10936;49.836;7.078;2023-04-25T15:18:16;6.03;;;2.80;;
21550;SDS011;10936;49.836;7.078;2023-04-25T15:20:43;7.63;;;2.60;;
21550;SDS011;10936;49.836;7.078;2023-04-25T15:23:09;9.27;;;2.70;;
21550;SDS011;10936;49.836;7.078;2023-04-25T15:25:34;9.20;;;2.23;;
21550;SDS011;10936;49.836;7.078;2023-04-25T15:28:00;6.87;;;2.90;;
21550;SDS011;10936;49.836;7.078;2023-04-25T15:30:26;9.53;;;3.67;;
21550;SDS011;10936;49.836;7.078;2023-04-25T15:32:51;13.77;;;3.70;;
21550;SDS011;10936;49.836;7.078;2023-04-25T15:35:17;6.07;;;3.00;;
21550;SDS011;10936;49.836;7.078;2023-04-25T15:37:42;7.37;;;2.80;;
21550;SDS011;10936;49.836;7.078;2023-04-25T15:40:09;5.93;;;2.90;;
21550;SDS011;10936;49.836;7.078;2023-04-25T15:42:40;10.20;;;3.20;;
21550;SDS011;10936;49.836;7.078;2023-04-25T15:45:08;7.10;;;2.70;;
21550;SDS011;10936;49.836;7.078;2023-04-25T15:47:36;11.93;;;3.10;;
21550;SDS011;10936;49.836;7.078;2023-04-25T15:50:02;5.47;;;2.60;;
21550;SDS011;10936;49.836;7.078;2023-04-25T15:52:30;8.50;;;2.73;;
21550;SDS011;10936;49.836;7.078;2023-04-25T15:54:56;10.47;;;3.27;;
21550;SDS011;10936;49.836;7.078;2023-04-25T15:57:22;14.23;;;4.70;;
21550;SDS011;10936;49.836;7.078;2023-04-25T15:59:48;9.03;;;3.53;;
21550;SDS011;10936;49.836;7.078;2023-04-25T16:02:14;10.30;;;3.30;;
21550;SDS011;10936;49.836;7.078;2023-04-25T16:04:40;13.53;;;3.00;;
21550;SDS011;10936;49.836;7.078;2023-04-25T16:07:06;8.77;;;3.10;;
21550;SDS011;10936;49.836;7.078;2023-04-25T16:09:33;15.47;;;3.13;;
21550;SDS011;10936;49.836;7.078;2023-04-25T16:11:59;8.83;;;3.27;;
21550;SDS011;10936;49.836;7.078;2023-04-25T16:14:25;13.13;;;3.63;;
21550;SDS011;10936;49.836;7.078;2023-04-25T16:16:50;11.47;;;3.00;;
21550;SDS011;10936;49.836;7.078;2023-04-25T16:19:16;9.77;;;3.03;;
21550;SDS011;10936;49.836;7.078;2023-04-25T16:21:41;11.57;;;4.10;;
21550;SDS011;10936;49.836;7.078;2023-04-25T16:24:07;8.50;;;3.37;;
21550;SDS011;10936;49.836;7.078;2023-04-25T16:26:33;10.63;;;3.20;;
21550;SDS011;10936;49.836;7.078;2023-04-25T16:29:01;10.00;;;3.40;;
21550;SDS011;10936;49.836;7.078;2023-04-25T16:31:28;25.37;;;9.13;;
21550;SDS011;10936;49.836;7.078;2023-04-25T16:33:53;11.20;;;4.73;;
21550;SDS011;10936;49.836;7.078;2023-04-25T16:36:19;9.93;;;3.80;;
21550;SDS011;10936;49.836;7.078;2023-04-25T16:38:45;12.87;;;3.40;;
21550;SDS011;10936;49.836;7.078;2023-04-25T16:41:11;10.03;;;3.43;;
21550;SDS011;10936;49.836;7.078;2023-04-25T16:43:37;11.10;;;4.33;;
21550;SDS011;10936;49.836;7.078;2023-04-25T16:46:04;12.90;;;4.53;;
21550;SDS011;10936;49.836;7.078;2023-04-25T16:48:30;13.90;;;4.20;;
21550;SDS011;10936;49.836;7.078;2023-04-25T16:50:56;16.93;;;4.47;;
21550;SDS011;10936;49.836;7.078;2023-04-25T16:53:22;14.50;;;4.47;;
21550;SDS011;10936;49.836;7.078;2023-04-25T16:55:48;8.57;;;3.67;;
21550;SDS011;10936;49.836;7.078;2023-04-25T16:58:14;16.30;;;4.40;;
21550;SDS011;10936;49.836;7.078;2023-04-25T17:00:39;19.03;;;5.37;;
21550;SDS011;10936;49.836;7.078;2023-04-25T17:03:06;9.63;;;3.37;;
21550;SDS011;10936;49.836;7.078;2023-04-25T17:05:32;11.40;;;5.83;;
21550;SDS011;10936;49.836;7.078;2023-04-25T17:07:58;11.07;;;5.23;;
21550;SDS011;10936;49.836;7.078;2023-04-25T17:10:24;16.47;;;4.27;;
21550;SDS011;10936;49.836;7.078;2023-04-25T17:12:50;9.00;;;3.23;;
21550;SDS011;10936;49.836;7.078;2023-04-25T17:15:16;18.77;;;5.40;;
21550;SDS011;10936;49.836;7.078;2023-04-25T17:17:42;12.83;;;5.23;;
21550;SDS011;10936;49.836;7.078;2023-04-25T17:20:07;16.17;;;4.33;;
21550;SDS011;10936;49.836;7.078;2023-04-25T17:22:37;17.13;;;6.80;;
21550;SDS011;10936;49.836;7.078;2023-04-25T17:25:04;18.77;;;6.60;;
21550;SDS011;10936;49.836;7.078;2023-04-25T17:27:31;17.07;;;6.23;;
21550;SDS011;10936;49.836;7.078;2023-04-25T17:29:57;22.37;;;8.90;;
21550;SDS011;10936;49.836;7.078;2023-04-25T17:32:23;21.27;;;9.10;;
21550;SDS011;10936;49.836;7.078;2023-04-25T17:34:48;19.03;;;6.40;;
21550;SDS011;10936;49.836;7.078;2023-04-25T17:37:14;35.17;;;14.63;;
21550;SDS011;10936;49.836;7.078;2023-04-25T17:39:43;23.60;;;10.20;;
21550;SDS011;10936;49.836;7.078;2023-04-25T17:42:09;29.40;;;10.00;;
21550;SDS011;10936;49.836;7.078;2023-04-25T17:44:36;21.83;;;6.90;;
21550;SDS011;10936;49.836;7.078;2023-04-25T17:47:02;30.07;;;12.90;;
21550;SDS011;10936;49.836;7.078;2023-04-25T17:49:28;18.87;;;9.17;;
21550;SDS011;10936;49.836;7.078;2023-04-25T17:51:56;22.20;;;10.67;;
21550;SDS011;10936;49.836;7.078;2023-04-25T17:54:21;12.43;;;5.23;;
21550;SDS011;10936;49.836;7.078;2023-04-25T17:56:47;11.07;;;4.57;;
21550;SDS011;10936;49.836;7.078;2023-04-25T17:59:13;11.53;;;4.53;;
21550;SDS011;10936;49.836;7.078;2023-04-25T18:01:39;15.33;;;6.73;;
21550;SDS011;10936;49.836;7.078;2023-04-25T18:04:04;16.53;;;6.67;;
21550;SDS011;10936;49.836;7.078;2023-04-25T18:06:30;17.23;;;7.43;;
21550;SDS011;10936;49.836;7.078;2023-04-25T18:08:59;22.77;;;8.77;;
21550;SDS011;10936;49.836;7.078;2023-04-25T18:11:26;20.53;;;9.37;;
21550;SDS011;10936;49.836;7.078;2023-04-25T18:13:53;31.13;;;11.00;;
21550;SDS011;10936;49.836;7.078;2023-04-25T18:16:19;29.80;;;12.43;;
21550;SDS011;10936;49.836;7.078;2023-04-25T18:18:45;37.30;;;13.00;;
21550;SDS011;10936;49.836;7.078;2023-04-25T18:21:16;18.97;;;7.77;;
21550;SDS011;10936;49.836;7.078;2023-04-25T18:23:43;21.57;;;7.63;;
21550;SDS011;10936;49.836;7.078;2023-04-25T18:26:09;15.20;;;6.70;;
21550;SDS011;10936;49.836;7.078;2023-04-25T18:28:36;20.97;;;11.03;;
21550;SDS011;10936;49.836;7.078;2023-04-25T18:31:01;21.23;;;9.90;;
21550;SDS011;10936;49.836;7.078;2023-04-25T18:33:28;13.97;;;8.87;;
21550;SDS011;10936;49.836;7.078;2023-04-25T18:35:53;10.47;;;7.43;;
21550;SDS011;10936;49.836;7.078;2023-04-25T18:38:20;12.30;;;6.23;;
21550;SDS011;10936;49.836;7.078;2023-04-25T18:40:45;11.80;;;6.00;;
21550;SDS011;10936;49.836;7.078;2023-04-25T18:43:12;11.27;;;6.67;;
21550;SDS011;10936;49.836;7.078;2023-04-25T18:45:38;13.80;;;6.03;;
21550;SDS011;10936;49.836;7.078;2023-04-25T18:48:04;13.47;;;5.23;;
21550;SDS011;10936;49.836;7.078;2023-04-25T18:50:29;12.30;;;4.77;;
21550;SDS011;10936;49.836;7.078;2023-04-25T18:52:57;6.43;;;3.87;;
21550;SDS011;10936;49.836;7.078;2023-04-25T18:55:23;10.17;;;3.77;;
21550;SDS011;10936;49.836;7.078;2023-04-25T18:57:48;12.60;;;4.40;;
21550;SDS011;10936;49.836;7.078;2023-04-25T19:00:14;5.33;;;3.70;;
21550;SDS011;10936;49.836;7.078;2023-04-25T19:02:41;12.40;;;3.73;;
21550;SDS011;10936;49.836;7.078;2023-04-25T19:05:06;11.40;;;4.53;;
21550;SDS011;10936;49.836;7.078;2023-04-25T19:07:34;14.60;;;4.13;;
21550;SDS011;10936;49.836;7.078;2023-04-25T19:09:59;9.87;;;4.40;;
21550;SDS011;10936;49.836;7.078;2023-04-25T19:12:25;11.33;;;4.97;;
21550;SDS011;10936;49.836;7.078;2023-04-25T19:14:51;10.50;;;4.93;;
21550;SDS011;10936;49.836;7.078;2023-04-25T19:17:17;11.90;;;5.10;;
21550;SDS011;10936;49.836;7.078;2023-04-25T19:19:42;9.17;;;4.30;;
21550;SDS011;10936;49.836;7.078;2023-04-25T19:22:08;10.80;;;4.87;;
21550;SDS011;10936;49.836;7.078;2023-04-25T19:24:34;13.33;;;4.93;;
21550;SDS011;10936;49.836;7.078;2023-04-25T19:27:00;8.87;;;4.57;;
21550;SDS011;10936;49.836;7.078;2023-04-25T19:29:26;12.27;;;4.63;;
21550;SDS011;10936;49.836;7.078;2023-04-25T19:31:54;9.97;;;4.87;;
21550;SDS011;10936;49.836;7.078;2023-04-25T19:34:21;10.00;;;4.27;;
21550;SDS011;10936;49.836;7.078;2023-04-25T19:36:47;14.87;;;4.73;;
21550;SDS011;10936;49.836;7.078;2023-04-25T19:39:16;13.53;;;5.30;;
21550;SDS011;10936;49.836;7.078;2023-04-25T19:41:42;9.80;;;4.60;;
21550;SDS011;10936;49.836;7.078;2023-04-25T19:44:07;9.43;;;4.70;;
21550;SDS011;10936;49.836;7.078;2023-04-25T19:46:33;12.60;;;6.00;;